KSIY

Siskiyou County Airport

Montague, California, USA
METAR KSIY 140053Z AUTO 25003KT 10SM CLR 05/M02 A3016 RMK AO2 SLP240 T00501022
Observed Flight Rules
Dec-14 @ 00:53 UTC (35 minutes ago) Visual Flight Rules
Wind Visibility Clouds
250° at 3 knots 10 miles
  • Clear skies
Temperatures Readings
Current 5°C / 41°F
Dewpoint -2°C / 28°F
Humidity 61%
Altimeter 30.16" Hg
Pressure 1024 hPa
Elevation 807
METAR KSIY 140053Z AUTO 25003KT 10SM CLR 05/M02 A3016 RMK AO2 SLP240 T00501022
Observed Flight Rules
Dec-14 @ 00:53 UTC
(35 minutes ago)
VFR
Wind Visibility
250° at 3 knots 10 miles
Clouds
  • Clear skies
Temperature Dewpoint
5°C / 41°F -2°C / 28°F
Humidity Altimeter Pressure
61% 30.16" Hg 1024 hPa